sensor_id;sensor_type;location;lat;lon;timestamp;temperature;humidity
66128;DHT22;52925;52.436;-1.952;2023-04-15T00:00:23;9.30;90.00
66128;DHT22;52925;52.436;-1.952;2023-04-15T00:01:44;9.20;89.00
66128;DHT22;52925;52.436;-1.952;2023-04-15T00:03:04;9.20;89.00
66128;DHT22;52925;52.436;-1.952;2023-04-15T00:04:25;9.30;89.00
66128;DHT22;52925;52.436;-1.952;2023-04-15T00:05:46;9.30;89.20
66128;DHT22;52925;52.436;-1.952;2023-04-15T00:07:06;9.30;89.00
66128;DHT22;52925;52.436;-1.952;2023-04-15T00:08:27;9.30;88.80
66128;DHT22;52925;52.436;-1.952;2023-04-15T00:09:48;9.30;88.80
66128;DHT22;52925;52.436;-1.952;2023-04-15T00:11:08;9.30;88.80
66128;DHT22;52925;52.436;-1.952;2023-04-15T00:12:29;9.30;88.70
66128;DHT22;52925;52.436;-1.952;2023-04-15T00:13:50;9.30;88.50
66128;DHT22;52925;52.436;-1.952;2023-04-15T00:15:11;9.30;88.70
66128;DHT22;52925;52.436;-1.952;2023-04-15T00:16:32;9.30;89.00
66128;DHT22;52925;52.436;-1.952;2023-04-15T00:17:52;9.20;89.00
66128;DHT22;52925;52.436;-1.952;2023-04-15T00:19:13;9.20;88.90
66128;DHT22;52925;52.436;-1.952;2023-04-15T00:20:33;9.20;88.90
66128;DHT22;52925;52.436;-1.952;2023-04-15T00:21:54;9.30;88.70
66128;DHT22;52925;52.436;-1.952;2023-04-15T00:23:15;9.30;88.70
66128;DHT22;52925;52.436;-1.952;2023-04-15T00:24:35;9.30;88.60
66128;DHT22;52925;52.436;-1.952;2023-04-15T00:25:56;9.30;88.60
66128;DHT22;52925;52.436;-1.952;2023-04-15T00:27:16;9.30;88.60
66128;DHT22;52925;52.436;-1.952;2023-04-15T00:28:37;9.30;88.60
66128;DHT22;52925;52.436;-1.952;2023-04-15T00:29:59;9.20;88.40
66128;DHT22;52925;52.436;-1.952;2023-04-15T00:31:20;9.20;88.60
66128;DHT22;52925;52.436;-1.952;2023-04-15T00:32:39;9.20;88.50
66128;DHT22;52925;52.436;-1.952;2023-04-15T05:30:58;8.50;90.20
66128;DHT22;52925;52.436;-1.952;2023-04-15T05:32:19;8.50;90.40
66128;DHT22;52925;52.436;-1.952;2023-04-15T05:33:39;8.50;90.40
66128;DHT22;52925;52.436;-1.952;2023-04-15T05:35:00;8.50;90.40
66128;DHT22;52925;52.436;-1.952;2023-04-15T05:36:21;8.50;90.40
66128;DHT22;52925;52.436;-1.952;2023-04-15T05:37:42;8.50;90.40
66128;DHT22;52925;52.436;-1.952;2023-04-15T05:39:03;8.50;90.40
66128;DHT22;52925;52.436;-1.952;2023-04-15T05:40:23;8.40;90.30
66128;DHT22;52925;52.436;-1.952;2023-04-15T05:41:44;8.40;90.40
66128;DHT22;52925;52.436;-1.952;2023-04-15T05:43:04;8.50;90.40
66128;DHT22;52925;52.436;-1.952;2023-04-15T05:44:25;8.50;90.30
66128;DHT22;52925;52.436;-1.952;2023-04-15T05:45:45;8.50;90.30
66128;DHT22;52925;52.436;-1.952;2023-04-15T05:47:08;8.50;90.30
66128;DHT22;52925;52.436;-1.952;2023-04-15T05:48:29;8.50;90.30
66128;DHT22;52925;52.436;-1.952;2023-04-15T05:49:49;8.50;90.30
66128;DHT22;52925;52.436;-1.952;2023-04-15T05:51:10;8.50;90.30
66128;DHT22;52925;52.436;-1.952;2023-04-15T05:52:31;8.50;90.30
66128;DHT22;52925;52.436;-1.952;2023-04-15T05:53:52;8.50;90.30
66128;DHT22;52925;52.436;-1.952;2023-04-15T05:55:12;8.50;90.20
66128;DHT22;52925;52.436;-1.952;2023-04-15T05:56:33;8.50;90.20
66128;DHT22;52925;52.436;-1.952;2023-04-15T05:57:54;8.50;90.20
66128;DHT22;52925;52.436;-1.952;2023-04-15T05:59:15;8.50;90.30
66128;DHT22;52925;52.436;-1.952;2023-04-15T06:00:35;8.50;90.20
66128;DHT22;52925;52.436;-1.952;2023-04-15T06:01:57;8.50;90.30
66128;DHT22;52925;52.436;-1.952;2023-04-15T06:03:19;8.50;90.30
66128;DHT22;52925;52.436;-1.952;2023-04-15T06:04:41;8.50;90.30
66128;DHT22;52925;52.436;-1.952;2023-04-15T06:06:02;8.50;90.20
66128;DHT22;52925;52.436;-1.952;2023-04-15T06:07:23;8.50;90.30
66128;DHT22;52925;52.436;-1.952;2023-04-15T06:08:43;8.50;90.30
66128;DHT22;52925;52.436;-1.952;2023-04-15T06:10:05;8.50;90.30
66128;DHT22;52925;52.436;-1.952;2023-04-15T06:11:26;8.50;90.20
66128;DHT22;52925;52.436;-1.952;2023-04-15T06:12:46;8.50;90.20
66128;DHT22;52925;52.436;-1.952;2023-04-15T06:14:07;8.50;90.20
66128;DHT22;52925;52.436;-1.952;2023-04-15T06:15:28;8.50;90.20
66128;DHT22;52925;52.436;-1.952;2023-04-15T06:16:48;8.40;90.20
66128;DHT22;52925;52.436;-1.952;2023-04-15T06:18:09;8.50;90.20
66128;DHT22;52925;52.436;-1.952;2023-04-15T06:19:31;8.50;90.20
66128;DHT22;52925;52.436;-1.952;2023-04-15T06:20:53;8.50;90.30
66128;DHT22;52925;52.436;-1.952;2023-04-15T06:22:13;8.50;90.30
66128;DHT22;52925;52.436;-1.952;2023-04-15T06:23:34;8.50;90.20
66128;DHT22;52925;52.436;-1.952;2023-04-15T06:24:55;8.40;90.20
66128;DHT22;52925;52.436;-1.952;2023-04-15T06:26:16;8.50;90.30
66128;DHT22;52925;52.436;-1.952;2023-04-15T06:27:37;8.50;90.30
66128;DHT22;52925;52.436;-1.952;2023-04-15T06:28:58;8.40;90.30
66128;DHT22;52925;52.436;-1.952;2023-04-15T06:30:19;8.40;90.30
66128;DHT22;52925;52.436;-1.952;2023-04-15T06:31:39;8.40;90.40
66128;DHT22;52925;52.436;-1.952;2023-04-15T06:33:00;8.40;90.40
66128;DHT22;52925;52.436;-1.952;2023-04-15T06:34:23;8.40;90.30
66128;DHT22;52925;52.436;-1.952;2023-04-15T06:35:45;8.40;90.30
66128;DHT22;52925;52.436;-1.952;2023-04-15T06:37:06;8.40;90.30
66128;DHT22;52925;52.436;-1.952;2023-04-15T06:38:28;8.40;90.30
66128;DHT22;52925;52.436;-1.952;2023-04-15T06:39:49;8.40;90.30
66128;DHT22;52925;52.436;-1.952;2023-04-15T06:41:10;8.40;90.30
66128;DHT22;52925;52.436;-1.952;2023-04-15T06:42:31;8.40;90.30
66128;DHT22;52925;52.436;-1.952;2023-04-15T06:43:52;8.40;90.70
66128;DHT22;52925;52.436;-1.952;2023-04-15T06:45:12;8.40;90.20
66128;DHT22;52925;52.436;-1.952;2023-04-15T06:46:33;8.50;90.30
66128;DHT22;52925;52.436;-1.952;2023-04-15T06:47:53;8.50;90.50
66128;DHT22;52925;52.436;-1.952;2023-04-15T06:49:14;8.40;90.20
66128;DHT22;52925;52.436;-1.952;2023-04-15T11:01:06;9.40;90.60
66128;DHT22;52925;52.436;-1.952;2023-04-15T11:02:38;9.40;90.70
66128;DHT22;52925;52.436;-1.952;2023-04-15T11:03:59;9.40;90.60
66128;DHT22;52925;52.436;-1.952;2023-04-15T11:05:21;9.40;90.80
66128;DHT22;52925;52.436;-1.952;2023-04-15T11:06:44;9.40;90.60
66128;DHT22;52925;52.436;-1.952;2023-04-15T11:08:06;9.40;90.50
66128;DHT22;52925;52.436;-1.952;2023-04-15T11:09:30;9.40;90.60
66128;DHT22;52925;52.436;-1.952;2023-04-15T11:10:52;9.40;90.60
66128;DHT22;52925;52.436;-1.952;2023-04-15T11:12:12;9.50;90.70
66128;DHT22;52925;52.436;-1.952;2023-04-15T11:13:34;9.60;90.60
66128;DHT22;52925;52.436;-1.952;2023-04-15T11:14:56;9.50;90.40
66128;DHT22;52925;52.436;-1.952;2023-04-15T11:16:18;9.50;90.50
66128;DHT22;52925;52.436;-1.952;2023-04-15T11:17:40;9.50;90.60
66128;DHT22;52925;52.436;-1.952;2023-04-15T11:19:00;9.50;90.60
66128;DHT22;52925;52.436;-1.952;2023-04-15T11:20:20;9.50;90.50
66128;DHT22;52925;52.436;-1.952;2023-04-15T11:21:40;9.50;90.50
66128;DHT22;52925;52.436;-1.952;2023-04-15T11:23:01;9.60;90.50
66128;DHT22;52925;52.436;-1.952;2023-04-15T11:24:23;9.60;90.50
66128;DHT22;52925;52.436;-1.952;2023-04-15T11:25:45;9.60;90.50
66128;DHT22;52925;52.436;-1.952;2023-04-15T11:27:06;9.60;90.50
66128;DHT22;52925;52.436;-1.952;2023-04-15T11:28:28;9.60;90.50
66128;DHT22;52925;52.436;-1.952;2023-04-15T11:29:49;9.60;90.40
66128;DHT22;52925;52.436;-1.952;2023-04-15T11:31:11;9.60;90.40
66128;DHT22;52925;52.436;-1.952;2023-04-15T11:32:34;9.70;90.30
66128;DHT22;52925;52.436;-1.952;2023-04-15T11:33:57;9.70;90.30
66128;DHT22;52925;52.436;-1.952;2023-04-15T11:35:19;9.70;90.30
66128;DHT22;52925;52.436;-1.952;2023-04-15T11:36:42;9.70;90.20
66128;DHT22;52925;52.436;-1.952;2023-04-15T11:38:03;9.80;90.10
66128;DHT22;52925;52.436;-1.952;2023-04-15T11:39:25;9.80;90.20
66128;DHT22;52925;52.436;-1.952;2023-04-15T11:40:45;9.70;90.10
66128;DHT22;52925;52.436;-1.952;2023-04-15T11:42:16;9.70;90.20
66128;DHT22;52925;52.436;-1.952;2023-04-15T11:43:36;9.70;90.20
66128;DHT22;52925;52.436;-1.952;2023-04-15T11:45:05;9.70;90.20
66128;DHT22;52925;52.436;-1.952;2023-04-15T11:46:28;9.70;90.20
66128;DHT22;52925;52.436;-1.952;2023-04-15T11:47:51;9.70;90.20
66128;DHT22;52925;52.436;-1.952;2023-04-15T11:49:11;9.70;90.20
66128;DHT22;52925;52.436;-1.952;2023-04-15T11:50:45;9.80;90.20
66128;DHT22;52925;52.436;-1.952;2023-04-15T11:52:09;9.80;90.10
66128;DHT22;52925;52.436;-1.952;2023-04-15T11:53:38;9.80;90.10
66128;DHT22;52925;52.436;-1.952;2023-04-15T11:55:02;9.80;90.10
66128;DHT22;52925;52.436;-1.952;2023-04-15T11:56:24;9.80;90.10
66128;DHT22;52925;52.436;-1.952;2023-04-15T11:57:45;9.80;90.10
66128;DHT22;52925;52.436;-1.952;2023-04-15T11:59:05;9.90;90.10
66128;DHT22;52925;52.436;-1.952;2023-04-15T12:00:26;9.80;90.10
66128;DHT22;52925;52.436;-1.952;2023-04-15T12:01:47;9.80;90.10
66128;DHT22;52925;52.436;-1.952;2023-04-15T12:03:14;9.80;90.10
66128;DHT22;52925;52.436;-1.952;2023-04-15T12:04:35;9.90;90.10
66128;DHT22;52925;52.436;-1.952;2023-04-15T12:06:03;9.90;90.30
66128;DHT22;52925;52.436;-1.952;2023-04-15T12:07:23;9.90;90.00
66128;DHT22;52925;52.436;-1.952;2023-04-15T12:08:58;9.90;89.90
66128;DHT22;52925;52.436;-1.952;2023-04-15T12:10:18;10.00;90.00
66128;DHT22;52925;52.436;-1.952;2023-04-15T12:11:49;9.90;89.80
66128;DHT22;52925;52.436;-1.952;2023-04-15T12:13:11;9.90;89.80
66128;DHT22;52925;52.436;-1.952;2023-04-15T12:14:32;9.90;89.70
66128;DHT22;52925;52.436;-1.952;2023-04-15T12:15:54;9.90;89.80
66128;DHT22;52925;52.436;-1.952;2023-04-15T12:17:15;10.00;89.70
66128;DHT22;52925;52.436;-1.952;2023-04-15T12:18:38;10.00;89.80
66128;DHT22;52925;52.436;-1.952;2023-04-15T12:19:57;10.00;89.70
66128;DHT22;52925;52.436;-1.952;2023-04-15T12:21:19;10.00;89.70
66128;DHT22;52925;52.436;-1.952;2023-04-15T12:22:39;10.00;89.70
66128;DHT22;52925;52.436;-1.952;2023-04-15T12:24:01;10.00;90.10
66128;DHT22;52925;52.436;-1.952;2023-04-15T12:25:33;10.00;89.60
66128;DHT22;52925;52.436;-1.952;2023-04-15T12:26:55;10.00;89.60
66128;DHT22;52925;52.436;-1.952;2023-04-15T12:28:16;10.00;89.60
66128;DHT22;52925;52.436;-1.952;2023-04-15T12:29:39;10.00;89.70
66128;DHT22;52925;52.436;-1.952;2023-04-15T12:31:06;10.00;89.70
66128;DHT22;52925;52.436;-1.952;2023-04-15T12:32:25;10.00;89.70
66128;DHT22;52925;52.436;-1.952;2023-04-15T12:33:48;10.00;89.70
66128;DHT22;52925;52.436;-1.952;2023-04-15T12:35:08;10.00;89.60
66128;DHT22;52925;52.436;-1.952;2023-04-15T12:36:30;10.00;89.50
66128;DHT22;52925;52.436;-1.952;2023-04-15T12:37:54;10.00;89.50
66128;DHT22;52925;52.436;-1.952;2023-04-15T12:39:15;10.10;89.60
66128;DHT22;52925;52.436;-1.952;2023-04-15T12:40:36;10.10;89.60
66128;DHT22;52925;52.436;-1.952;2023-04-15T12:41:56;10.10;89.70
66128;DHT22;52925;52.436;-1.952;2023-04-15T12:43:17;10.10;89.50
66128;DHT22;52925;52.436;-1.952;2023-04-15T12:44:37;10.10;89.60
66128;DHT22;52925;52.436;-1.952;2023-04-15T12:45:59;10.10;89.50
66128;DHT22;52925;52.436;-1.952;2023-04-15T12:47:19;10.10;89.50
66128;DHT22;52925;52.436;-1.952;2023-04-15T12:48:39;10.10;89.50
66128;DHT22;52925;52.436;-1.952;2023-04-15T12:50:01;10.10;89.40
66128;DHT22;52925;52.436;-1.952;2023-04-15T12:51:22;10.10;89.40
66128;DHT22;52925;52.436;-1.952;2023-04-15T12:52:43;10.10;89.40
66128;DHT22;52925;52.436;-1.952;2023-04-15T12:54:03;10.10;89.30
66128;DHT22;52925;52.436;-1.952;2023-04-15T12:55:23;10.10;89.20
66128;DHT22;52925;52.436;-1.952;2023-04-15T17:46:12;11.30;87.30
66128;DHT22;52925;52.436;-1.952;2023-04-15T17:47:33;11.30;87.80
66128;DHT22;52925;52.436;-1.952;2023-04-15T17:48:54;11.30;87.80
66128;DHT22;52925;52.436;-1.952;2023-04-15T17:50:15;11.30;87.80
66128;DHT22;52925;52.436;-1.952;2023-04-15T17:51:36;11.30;87.80
66128;DHT22;52925;52.436;-1.952;2023-04-15T17:53:00;11.30;87.80
66128;DHT22;52925;52.436;-1.952;2023-04-15T17:54:21;11.30;87.80
66128;DHT22;52925;52.436;-1.952;2023-04-15T17:55:41;11.30;87.90
66128;DHT22;52925;52.436;-1.952;2023-04-15T17:57:03;11.30;88.00
66128;DHT22;52925;52.436;-1.952;2023-04-15T17:58:22;11.30;88.00
66128;DHT22;52925;52.436;-1.952;2023-04-15T17:59:43;11.30;88.00
66128;DHT22;52925;52.436;-1.952;2023-04-15T18:01:05;11.30;88.00
66128;DHT22;52925;52.436;-1.952;2023-04-15T18:02:28;11.20;88.00
66128;DHT22;52925;52.436;-1.952;2023-04-15T18:03:48;11.20;88.10
66128;DHT22;52925;52.436;-1.952;2023-04-15T18:05:09;11.20;88.10
66128;DHT22;52925;52.436;-1.952;2023-04-15T18:06:30;11.30;88.10
66128;DHT22;52925;52.436;-1.952;2023-04-15T18:07:51;11.20;88.10
66128;DHT22;52925;52.436;-1.952;2023-04-15T18:09:12;11.30;88.10
66128;DHT22;52925;52.436;-1.952;2023-04-15T18:10:33;11.20;88.20
66128;DHT22;52925;52.436;-1.952;2023-04-15T18:11:54;11.20;88.20
66128;DHT22;52925;52.436;-1.952;2023-04-15T18:13:16;11.20;88.20
66128;DHT22;52925;52.436;-1.952;2023-04-15T18:14:37;11.20;88.20
66128;DHT22;52925;52.436;-1.952;2023-04-15T18:15:56;11.20;88.10
66128;DHT22;52925;52.436;-1.952;2023-04-15T18:17:17;11.20;88.10
66128;DHT22;52925;52.436;-1.952;2023-04-15T18:18:39;11.20;88.10
66128;DHT22;52925;52.436;-1.952;2023-04-15T18:20:00;11.20;88.00
66128;DHT22;52925;52.436;-1.952;2023-04-15T18:21:21;11.20;88.10
66128;DHT22;52925;52.436;-1.952;2023-04-15T18:22:42;11.20;88.00
66128;DHT22;52925;52.436;-1.952;2023-04-15T18:24:04;11.20;87.90
66128;DHT22;52925;52.436;-1.952;2023-04-15T18:25:24;11.30;87.90
66128;DHT22;52925;52.436;-1.952;2023-04-15T18:26:45;11.30;87.90
66128;DHT22;52925;52.436;-1.952;2023-04-15T18:28:05;11.30;87.80
66128;DHT22;52925;52.436;-1.952;2023-04-15T18:29:26;11.30;87.90
66128;DHT22;52925;52.436;-1.952;2023-04-15T18:30:49;11.30;88.00
66128;DHT22;52925;52.436;-1.952;2023-04-15T18:32:10;11.30;88.10
66128;DHT22;52925;52.436;-1.952;2023-04-15T18:33:30;11.30;88.10
66128;DHT22;52925;52.436;-1.952;2023-04-15T18:34:53;11.30;88.10
66128;DHT22;52925;52.436;-1.952;2023-04-15T18:36:14;11.30;88.00
66128;DHT22;52925;52.436;-1.952;2023-04-15T18:37:35;11.40;88.00
66128;DHT22;52925;52.436;-1.952;2023-04-15T18:38:55;11.40;87.90
66128;DHT22;52925;52.436;-1.952;2023-04-15T18:40:17;11.30;87.90
66128;DHT22;52925;52.436;-1.952;2023-04-15T18:41:38;11.30;87.90
66128;DHT22;52925;52.436;-1.952;2023-04-15T18:42:57;11.30;87.80
66128;DHT22;52925;52.436;-1.952;2023-04-15T18:44:18;11.30;87.70
66128;DHT22;52925;52.436;-1.952;2023-04-15T18:45:38;11.40;87.80
66128;DHT22;52925;52.436;-1.952;2023-04-15T18:46:59;11.30;87.70
66128;DHT22;52925;52.436;-1.952;2023-04-15T18:48:21;11.30;87.60
66128;DHT22;52925;52.436;-1.952;2023-04-15T18:49:42;11.30;87.60
66128;DHT22;52925;52.436;-1.952;2023-04-15T18:51:04;11.30;87.60
66128;DHT22;52925;52.436;-1.952;2023-04-15T18:52:25;11.30;87.60
66128;DHT22;52925;52.436;-1.952;2023-04-15T18:53:45;11.30;87.50
66128;DHT22;52925;52.436;-1.952;2023-04-15T18:55:07;11.30;87.60
66128;DHT22;52925;52.436;-1.952;2023-04-15T18:56:28;11.30;87.80
66128;DHT22;52925;52.436;-1.952;2023-04-15T18:57:49;11.30;87.70
66128;DHT22;52925;52.436;-1.952;2023-04-15T18:59:10;11.30;87.80
66128;DHT22;52925;52.436;-1.952;2023-04-15T19:00:31;11.20;87.70
66128;DHT22;52925;52.436;-1.952;2023-04-15T19:01:51;11.20;87.80
66128;DHT22;52925;52.436;-1.952;2023-04-15T19:03:12;11.20;87.80
66128;DHT22;52925;52.436;-1.952;2023-04-15T19:04:34;11.20;87.80
66128;DHT22;52925;52.436;-1.952;2023-04-15T19:05:55;11.20;87.80
66128;DHT22;52925;52.436;-1.952;2023-04-15T19:07:18;11.20;87.70
66128;DHT22;52925;52.436;-1.952;2023-04-15T19:08:38;11.20;87.80
66128;DHT22;52925;52.436;-1.952;2023-04-15T19:09:58;11.20;87.70
66128;DHT22;52925;52.436;-1.952;2023-04-15T19:11:19;11.20;87.60
66128;DHT22;52925;52.436;-1.952;2023-04-15T19:12:40;11.20;87.80
66128;DHT22;52925;52.436;-1.952;2023-04-15T19:14:00;11.10;87.70
66128;DHT22;52925;52.436;-1.952;2023-04-15T19:15:21;11.10;87.70
66128;DHT22;52925;52.436;-1.952;2023-04-15T19:16:42;11.20;87.70
66128;DHT22;52925;52.436;-1.952;2023-04-15T19:18:03;11.20;87.60
66128;DHT22;52925;52.436;-1.952;2023-04-15T19:19:28;11.30;87.50
66128;DHT22;52925;52.436;-1.952;2023-04-15T19:20:50;11.30;87.50
66128;DHT22;52925;52.436;-1.952;2023-04-15T19:22:11;11.20;87.60
66128;DHT22;52925;52.436;-1.952;2023-04-15T19:23:33;11.20;87.80
66128;DHT22;52925;52.436;-1.952;2023-04-15T19:24:54;11.10;87.90
66128;DHT22;52925;52.436;-1.952;2023-04-15T19:26:14;11.10;88.00
66128;DHT22;52925;52.436;-1.952;2023-04-15T19:27:34;11.10;88.00
66128;DHT22;52925;52.436;-1.952;2023-04-15T19:28:56;11.10;88.10
66128;DHT22;52925;52.436;-1.952;2023-04-15T19:30:17;11.20;88.00
66128;DHT22;52925;52.436;-1.952;2023-04-15T19:31:39;11.10;87.90
66128;DHT22;52925;52.436;-1.952;2023-04-15T19:33:00;11.20;87.80
66128;DHT22;52925;52.436;-1.952;2023-04-15T19:34:20;11.20;87.70
66128;DHT22;52925;52.436;-1.952;2023-04-15T19:35:41;11.20;87.50
66128;DHT22;52925;52.436;-1.952;2023-04-15T19:37:02;11.30;87.30
66128;DHT22;52925;52.436;-1.952;2023-04-15T19:38:23;11.30;87.20
66128;DHT22;52925;52.436;-1.952;2023-04-15T19:39:45;11.30;87.00
66128;DHT22;52925;52.436;-1.952;2023-04-15T19:41:05;11.30;87.10
66128;DHT22;52925;52.436;-1.952;2023-04-15T19:42:27;11.30;86.90
66128;DHT22;52925;52.436;-1.952;2023-04-15T19:43:48;11.40;86.90
66128;DHT22;52925;52.436;-1.952;2023-04-15T19:45:09;11.40;86.70
66128;DHT22;52925;52.436;-1.952;2023-04-15T19:46:31;11.40;86.60
66128;DHT22;52925;52.436;-1.952;2023-04-15T19:47:52;11.40;86.60
66128;DHT22;52925;52.436;-1.952;2023-04-15T19:49:12;11.40;86.50
66128;DHT22;52925;52.436;-1.952;2023-04-15T19:50:33;11.40;86.50
66128;DHT22;52925;52.436;-1.952;2023-04-15T19:51:54;11.40;86.40
66128;DHT22;52925;52.436;-1.952;2023-04-15T19:53:15;11.40;86.50
66128;DHT22;52925;52.436;-1.952;2023-04-15T19:54:36;11.40;86.50
66128;DHT22;52925;52.436;-1.952;2023-04-15T19:55:58;11.40;86.40
66128;DHT22;52925;52.436;-1.952;2023-04-15T19:57:19;11.40;86.40
66128;DHT22;52925;52.436;-1.952;2023-04-15T19:58:40;11.40;86.40
66128;DHT22;52925;52.436;-1.952;2023-04-15T20:00:00;11.40;86.30
66128;DHT22;52925;52.436;-1.952;2023-04-15T20:01:25;11.40;86.20
66128;DHT22;52925;52.436;-1.952;2023-04-15T20:02:46;11.40;86.10
66128;DHT22;52925;52.436;-1.952;2023-04-15T20:04:07;11.40;86.10
66128;DHT22;52925;52.436;-1.952;2023-04-15T20:05:27;11.40;86.20
66128;DHT22;52925;52.436;-1.952;2023-04-15T20:06:47;11.40;86.20
66128;DHT22;52925;52.436;-1.952;2023-04-15T20:08:07;11.30;86.10
66128;DHT22;52925;52.436;-1.952;2023-04-15T20:09:28;11.40;86.20
66128;DHT22;52925;52.436;-1.952;2023-04-15T20:10:49;11.30;86.10
66128;DHT22;52925;52.436;-1.952;2023-04-15T20:12:11;11.40;86.30
66128;DHT22;52925;52.436;-1.952;2023-04-15T20:13:32;11.30;86.20
66128;DHT22;52925;52.436;-1.952;2023-04-15T20:14:53;11.30;86.30
66128;DHT22;52925;52.436;-1.952;2023-04-15T20:16:13;11.30;86.30
66128;DHT22;52925;52.436;-1.952;2023-04-15T20:17:35;11.30;86.30
66128;DHT22;52925;52.436;-1.952;2023-04-15T20:18:54;11.30;86.30
66128;DHT22;52925;52.436;-1.952;2023-04-15T20:20:15;11.30;86.20
66128;DHT22;52925;52.436;-1.952;2023-04-15T20:21:36;11.30;86.30
66128;DHT22;52925;52.436;-1.952;2023-04-15T20:22:57;11.30;86.50
66128;DHT22;52925;52.436;-1.952;2023-04-15T20:24:17;11.30;86.40
66128;DHT22;52925;52.436;-1.952;2023-04-15T20:25:41;11.20;86.40
66128;DHT22;52925;52.436;-1.952;2023-04-15T20:27:02;11.20;86.40
66128;DHT22;52925;52.436;-1.952;2023-04-15T20:28:24;11.30;86.40
66128;DHT22;52925;52.436;-1.952;2023-04-15T20:29:46;11.30;86.40
66128;DHT22;52925;52.436;-1.952;2023-04-15T20:31:07;11.30;86.40
66128;DHT22;52925;52.436;-1.952;2023-04-15T20:32:27;11.30;86.40
66128;DHT22;52925;52.436;-1.952;2023-04-15T20:33:51;11.20;86.50
66128;DHT22;52925;52.436;-1.952;2023-04-15T20:35:12;11.20;86.50
66128;DHT22;52925;52.436;-1.952;2023-04-15T20:36:33;11.20;86.60
66128;DHT22;52925;52.436;-1.952;2023-04-15T20:37:54;11.20;86.60
66128;DHT22;52925;52.436;-1.952;2023-04-15T20:39:15;11.20;86.50
66128;DHT22;52925;52.436;-1.952;2023-04-15T20:40:36;11.20;86.40
66128;DHT22;52925;52.436;-1.952;2023-04-15T20:41:56;11.20;86.40
66128;DHT22;52925;52.436;-1.952;2023-04-15T20:43:16;11.20;86.40
66128;DHT22;52925;52.436;-1.952;2023-04-15T20:44:39;11.20;86.40
66128;DHT22;52925;52.436;-1.952;2023-04-15T20:45:59;11.20;86.40
66128;DHT22;52925;52.436;-1.952;2023-04-15T20:47:20;11.20;86.40
66128;DHT22;52925;52.436;-1.952;2023-04-15T20:48:42;11.20;86.30
66128;DHT22;52925;52.436;-1.952;2023-04-15T20:50:03;11.20;86.30
66128;DHT22;52925;52.436;-1.952;2023-04-15T20:51:24;11.20;86.40
66128;DHT22;52925;52.436;-1.952;2023-04-15T20:52:45;11.20;86.40
66128;DHT22;52925;52.436;-1.952;2023-04-15T20:54:06;11.20;86.40
66128;DHT22;52925;52.436;-1.952;2023-04-15T20:55:27;11.10;86.40
66128;DHT22;52925;52.436;-1.952;2023-04-15T20:56:48;11.20;86.40
66128;DHT22;52925;52.436;-1.952;2023-04-15T20:58:09;11.20;86.40
66128;DHT22;52925;52.436;-1.952;2023-04-15T20:59:30;11.10;86.30
66128;DHT22;52925;52.436;-1.952;2023-04-15T21:00:54;11.10;86.50
66128;DHT22;52925;52.436;-1.952;2023-04-15T21:02:15;11.10;86.40
66128;DHT22;52925;52.436;-1.952;2023-04-15T21:03:36;11.10;86.40
66128;DHT22;52925;52.436;-1.952;2023-04-15T21:04:57;11.20;86.40
66128;DHT22;52925;52.436;-1.952;2023-04-15T21:06:18;11.10;86.40
66128;DHT22;52925;52.436;-1.952;2023-04-15T21:07:39;11.20;86.50
66128;DHT22;52925;52.436;-1.952;2023-04-15T21:09:00;11.10;86.40
66128;DHT22;52925;52.436;-1.952;2023-04-15T21:10:20;11.10;86.30
66128;DHT22;52925;52.436;-1.952;2023-04-15T21:11:44;11.10;86.30
66128;DHT22;52925;52.436;-1.952;2023-04-15T21:13:04;11.10;86.20
66128;DHT22;52925;52.436;-1.952;2023-04-15T21:14:26;11.20;86.20
66128;DHT22;52925;52.436;-1.952;2023-04-15T21:15:46;11.20;86.20
66128;DHT22;52925;52.436;-1.952;2023-04-15T21:17:12;11.10;86.20
66128;DHT22;52925;52.436;-1.952;2023-04-15T21:18:33;11.10;86.20
66128;DHT22;52925;52.436;-1.952;2023-04-15T21:19:54;11.10;86.30
66128;DHT22;52925;52.436;-1.952;2023-04-15T21:21:15;11.10;86.30
66128;DHT22;52925;52.436;-1.952;2023-04-15T21:22:35;11.10;86.30
66128;DHT22;52925;52.436;-1.952;2023-04-15T21:23:56;11.10;86.20
66128;DHT22;52925;52.436;-1.952;2023-04-15T21:25:15;11.10;86.20
66128;DHT22;52925;52.436;-1.952;2023-04-15T21:26:36;11.10;86.20
66128;DHT22;52925;52.436;-1.952;2023-04-15T21:27:56;11.10;86.20
66128;DHT22;52925;52.436;-1.952;2023-04-15T21:29:17;11.10;86.10
66128;DHT22;52925;52.436;-1.952;2023-04-15T21:30:37;11.10;86.20
66128;DHT22;52925;52.436;-1.952;2023-04-15T21:31:58;11.10;86.20
66128;DHT22;52925;52.436;-1.952;2023-04-15T21:33:20;11.10;86.20
66128;DHT22;52925;52.436;-1.952;2023-04-15T21:34:41;11.20;86.10
66128;DHT22;52925;52.436;-1.952;2023-04-15T21:36:02;11.10;86.10
66128;DHT22;52925;52.436;-1.952;2023-04-15T21:37:24;11.10;86.00
66128;DHT22;52925;52.436;-1.952;2023-04-15T21:38:44;11.10;86.00
66128;DHT22;52925;52.436;-1.952;2023-04-15T21:40:05;11.10;86.10
66128;DHT22;52925;52.436;-1.952;2023-04-15T21:41:26;11.10;86.10
66128;DHT22;52925;52.436;-1.952;2023-04-15T21:42:47;11.10;86.10
66128;DHT22;52925;52.436;-1.952;2023-04-15T21:44:08;11.10;86.10
66128;DHT22;52925;52.436;-1.952;2023-04-15T21:45:29;11.10;86.10
66128;DHT22;52925;52.436;-1.952;2023-04-15T21:46:50;11.10;86.20
66128;DHT22;52925;52.436;-1.952;2023-04-15T21:48:10;11.10;86.10
66128;DHT22;52925;52.436;-1.952;2023-04-15T21:49:33;11.00;86.20
66128;DHT22;52925;52.436;-1.952;2023-04-15T21:50:57;11.10;86.20
66128;DHT22;52925;52.436;-1.952;2023-04-15T21:52:17;11.10;86.10
66128;DHT22;52925;52.436;-1.952;2023-04-15T21:53:38;11.10;86.10
66128;DHT22;52925;52.436;-1.952;2023-04-15T21:54:58;11.10;86.20
66128;DHT22;52925;52.436;-1.952;2023-04-15T21:56:19;11.00;86.10
66128;DHT22;52925;52.436;-1.952;2023-04-15T21:57:40;11.10;86.00
66128;DHT22;52925;52.436;-1.952;2023-04-15T21:59:01;11.00;86.10
66128;DHT22;52925;52.436;-1.952;2023-04-15T22:00:21;11.00;86.00
66128;DHT22;52925;52.436;-1.952;2023-04-15T22:01:42;11.00;86.10
66128;DHT22;52925;52.436;-1.952;2023-04-15T22:03:02;11.10;86.20
66128;DHT22;52925;52.436;-1.952;2023-04-15T22:04:23;11.10;86.20
66128;DHT22;52925;52.436;-1.952;2023-04-15T22:05:45;11.00;86.20
66128;DHT22;52925;52.436;-1.952;2023-04-15T22:07:06;11.00;86.30
66128;DHT22;52925;52.436;-1.952;2023-04-15T22:08:28;11.00;86.20
66128;DHT22;52925;52.436;-1.952;2023-04-15T22:09:48;11.00;86.20
66128;DHT22;52925;52.436;-1.952;2023-04-15T22:11:09;11.00;86.10
66128;DHT22;52925;52.436;-1.952;2023-04-15T22:12:39;11.00;86.10
66128;DHT22;52925;52.436;-1.952;2023-04-15T22:14:00;11.00;86.20
66128;DHT22;52925;52.436;-1.952;2023-04-15T22:15:21;11.00;86.20
66128;DHT22;52925;52.436;-1.952;2023-04-15T22:16:42;11.00;86.20
66128;DHT22;52925;52.436;-1.952;2023-04-15T22:18:02;11.00;86.20
66128;DHT22;52925;52.436;-1.952;2023-04-15T22:19:23;11.00;86.10
66128;DHT22;52925;52.436;-1.952;2023-04-15T22:20:46;11.00;86.20
66128;DHT22;52925;52.436;-1.952;2023-04-15T22:22:06;11.00;86.10
66128;DHT22;52925;52.436;-1.952;2023-04-15T22:23:27;11.00;86.20
66128;DHT22;52925;52.436;-1.952;2023-04-15T22:24:47;11.00;86.10
66128;DHT22;52925;52.436;-1.952;2023-04-15T22:26:08;11.00;86.20